ACA673 KDEN-CYYC
Flight info
| Callsign | ACA673 |
|---|---|
| Flight time | N/A |
| Altitude | 38000 |
| Route | XXWNG1 XXWNG BIL TOVUM EBGAL7 |
| Aircraft | B77W/H-V/N |
Departure
| Time | 2026-05-06 22:53 |
|---|---|
| Airport | Denver International Airport (KDEN) |
Arrival
| Time | N/A |
|---|---|
| Airport | Calgary International Airport (CYYC) |
| Time | Latitude | Longitude | Altitude | Speed | Heading |
|---|---|---|---|---|---|
| 2026-05-06 22:23 | 39.85462 | -104.67681 | 5389 ft | 0 kts | 180° |
| 2026-05-06 22:39 | 39.85454 | -104.67681 | 5389 ft | 0 kts | 179° |
| 2026-05-06 22:43 | 39.85456 | -104.67681 | 5389 ft | 1 kts | 180° |
| 2026-05-06 22:43 | 39.85477 | -104.67679 | 5387 ft | 2 kts | 192° |
| 2026-05-06 22:43 | 39.85498 | -104.67668 | 5382 ft | 7 kts | 221° |
| 2026-05-06 22:44 | 39.85527 | -104.67600 | 5382 ft | 1 kts | 262° |
| 2026-05-06 22:44 | 39.85526 | -104.67604 | 5383 ft | 1 kts | 262° |
| 2026-05-06 22:44 | 39.85526 | -104.67610 | 5384 ft | 1 kts | 262° |
| 2026-05-06 22:44 | 39.85525 | -104.67615 | 5385 ft | 1 kts | 262° |
| 2026-05-06 22:45 | 39.85525 | -104.67621 | 5381 ft | 0 kts | 262° |
| 2026-05-06 22:46 | 39.85521 | -104.67679 | 5381 ft | 11 kts | 268° |
| 2026-05-06 22:46 | 39.85553 | -104.67768 | 5383 ft | 11 kts | 313° |
| 2026-05-06 22:46 | 39.85588 | -104.67857 | 5379 ft | 11 kts | 280° |
| 2026-05-06 22:46 | 39.85592 | -104.67959 | 5384 ft | 11 kts | 271° |
| 2026-05-06 22:47 | 39.85594 | -104.68062 | 5384 ft | 11 kts | 271° |
| 2026-05-06 22:47 | 39.85595 | -104.68164 | 5384 ft | 11 kts | 271° |
| 2026-05-06 22:47 | 39.85597 | -104.68266 | 5384 ft | 11 kts | 271° |
| 2026-05-06 22:47 | 39.85583 | -104.68365 | 5376 ft | 12 kts | 233° |
| 2026-05-06 22:48 | 39.85507 | -104.68396 | 5380 ft | 12 kts | 184° |
| 2026-05-06 22:48 | 39.85427 | -104.68401 | 5377 ft | 12 kts | 181° |
| 2026-05-06 22:48 | 39.85346 | -104.68402 | 5380 ft | 12 kts | 180° |
| 2026-05-06 22:48 | 39.85266 | -104.68407 | 5381 ft | 12 kts | 193° |
| 2026-05-06 22:49 | 39.85213 | -104.68483 | 5378 ft | 13 kts | 253° |
| 2026-05-06 22:49 | 39.85202 | -104.68603 | 5372 ft | 14 kts | 266° |
| 2026-05-06 22:49 | 39.85199 | -104.68742 | 5368 ft | 16 kts | 268° |
| 2026-05-06 22:49 | 39.85196 | -104.68898 | 5361 ft | 18 kts | 269° |
| 2026-05-06 22:50 | 39.85197 | -104.69065 | 5357 ft | 19 kts | 270° |
| 2026-05-06 22:50 | 39.85198 | -104.69244 | 5352 ft | 20 kts | 270° |
| 2026-05-06 22:50 | 39.85201 | -104.69424 | 5345 ft | 18 kts | 271° |
| 2026-05-06 22:50 | 39.85201 | -104.69464 | 5343 ft | 0 kts | 270° |
| 2026-05-06 22:52 | 39.85201 | -104.69467 | 5343 ft | 4 kts | 270° |
| 2026-05-06 22:52 | 39.85207 | -104.69583 | 5342 ft | 17 kts | 288° |
| 2026-05-06 22:52 | 39.85295 | -104.69657 | 5341 ft | 16 kts | 353° |
| 2026-05-06 22:52 | 39.85459 | -104.69659 | 5343 ft | 49 kts | 0° |
| 2026-05-06 22:53 | 39.86064 | -104.69652 | 5344 ft | 124 kts | 0° |
| 2026-05-06 22:53 | 39.87176 | -104.69645 | 5347 ft | 194 kts | 359° |
| 2026-05-06 22:53 | 39.88143 | -104.69641 | 5447 ft | 222 kts | 1° |
| 2026-05-06 22:53 | 39.89802 | -104.69596 | 6097 ft | 254 kts | 2° |
| 2026-05-06 22:54 | 39.91660 | -104.69567 | 7083 ft | 278 kts | 2° |
| 2026-05-06 22:54 | 39.93695 | -104.69540 | 7875 ft | 306 kts | 1° |
| 2026-05-06 22:54 | 39.95909 | -104.69523 | 8846 ft | 322 kts | 0° |
| 2026-05-06 22:54 | 39.98237 | -104.69527 | 9589 ft | 357 kts | 359° |
| 2026-05-06 22:55 | 40.00895 | -104.69540 | 9587 ft | 402 kts | 360° |
| 2026-05-06 22:55 | 40.03613 | -104.69557 | 10010 ft | 373 kts | 359° |
| 2026-05-06 22:55 | 40.06071 | -104.69572 | 10517 ft | 331 kts | 359° |
| 2026-05-06 22:55 | 40.08244 | -104.69582 | 11002 ft | 295 kts | 358° |
| 2026-05-06 22:56 | 40.10295 | -104.69593 | 11624 ft | 298 kts | 358° |
| 2026-05-06 22:56 | 40.12391 | -104.69608 | 12313 ft | 305 kts | 357° |
| 2026-05-06 22:56 | 40.14548 | -104.69625 | 12976 ft | 312 kts | 356° |
| 2026-05-06 22:56 | 40.16742 | -104.69644 | 13654 ft | 318 kts | 355° |
| 2026-05-06 22:57 | 40.18974 | -104.69664 | 14291 ft | 323 kts | 355° |
| 2026-05-06 22:57 | 40.21231 | -104.69684 | 14917 ft | 326 kts | 355° |
| 2026-05-06 22:57 | 40.23515 | -104.69704 | 15523 ft | 329 kts | 354° |
| 2026-05-06 22:57 | 40.25778 | -104.69724 | 16139 ft | 331 kts | 354° |
| 2026-05-06 22:58 | 40.28094 | -104.69743 | 16770 ft | 332 kts | 353° |
| 2026-05-06 22:58 | 40.30406 | -104.69761 | 17412 ft | 332 kts | 353° |
| 2026-05-06 22:58 | 40.32717 | -104.69778 | 18068 ft | 331 kts | 353° |
| 2026-05-06 22:58 | 40.35016 | -104.69795 | 18687 ft | 330 kts | 352° |
| 2026-05-06 22:59 | 40.37306 | -104.69810 | 19252 ft | 327 kts | 352° |
| 2026-05-06 22:59 | 40.39566 | -104.69823 | 19831 ft | 323 kts | 352° |
| 2026-05-06 22:59 | 40.41799 | -104.69835 | 20416 ft | 318 kts | 352° |
| 2026-05-06 22:59 | 40.43992 | -104.69845 | 20996 ft | 312 kts | 352° |
| 2026-05-06 23:00 | 40.46109 | -104.69852 | 21560 ft | 306 kts | 352° |
| 2026-05-06 23:00 | 40.48247 | -104.69863 | 22044 ft | 308 kts | 352° |
| 2026-05-06 23:00 | 40.50404 | -104.69881 | 22439 ft | 313 kts | 352° |
| 2026-05-06 23:00 | 40.52602 | -104.69902 | 22809 ft | 318 kts | 352° |
| 2026-05-06 23:01 | 40.54828 | -104.69925 | 23190 ft | 323 kts | 352° |
| 2026-05-06 23:01 | 40.57095 | -104.69949 | 23570 ft | 328 kts | 352° |
| 2026-05-06 23:01 | 40.59389 | -104.69973 | 23898 ft | 332 kts | 352° |